Time;durP1;ratioP1;P1;durP2;ratioP2;P2;SDS_P1;SDS_P2;PMS_P1;PMS_P2;Temp;Humidity;BMP_temperature;BMP_pressure;BME280_temperature;BME280_humidity;BME280_pressure;Samples;Min_cycle;Max_cycle;Signal;HPM_P1;HPM_P2
2021/11/16 00:01:01;;;;;;;31.20;9.05;;;21.90;41.20;;;;;;4929379;29;20282;-49
2021/11/16 00:03:32;;;;;;;30.90;8.48;;;21.90;41.20;;;;;;4930858;29;20227;-51
2021/11/16 00:06:02;;;;;;;37.15;9.18;;;21.90;41.20;;;;;;4930750;29;20282;-51
2021/11/16 00:08:33;;;;;;;32.22;9.27;;;21.90;41.30;;;;;;4931504;29;20803;-46
2021/11/16 00:11:04;;;;;;;24.85;7.88;;;21.90;41.20;;;;;;4931161;29;20314;-49
2021/11/16 00:13:34;;;;;;;45.17;11.32;;;21.90;41.30;;;;;;4928882;29;20203;-45
2021/11/16 00:16:07;;;;;;;41.03;10.98;;;22.00;41.40;;;;;;4930458;29;20284;-52
2021/11/16 00:18:37;;;;;;;40.88;10.23;;;22.00;41.40;;;;;;4930574;29;20443;-45
2021/11/16 00:21:10;;;;;;;36.97;9.98;;;22.00;41.40;;;;;;4930399;29;20294;-45
2021/11/16 00:23:42;;;;;;;36.10;10.38;;;22.00;41.40;;;;;;4930740;29;20290;-54
2021/11/16 00:26:14;;;;;;;30.05;7.78;;;22.00;41.50;;;;;;4931296;29;20199;-47
2021/11/16 00:28:44;;;;;;;34.42;8.20;;;22.00;41.40;;;;;;4931503;29;20196;-49
2021/11/16 00:31:17;;;;;;;24.52;7.68;;;22.00;41.50;;;;;;4929799;29;20275;-48
2021/11/16 00:33:47;;;;;;;27.67;6.57;;;22.00;41.50;;;;;;4929266;29;20656;-47
2021/11/16 00:36:18;;;;;;;24.45;7.10;;;22.00;41.50;;;;;;4930203;29;20231;-44
2021/11/16 00:38:49;;;;;;;28.63;8.20;;;22.00;41.40;;;;;;4928870;29;20212;-45
2021/11/16 00:41:19;;;;;;;33.20;7.57;;;22.00;41.40;;;;;;4929587;29;20243;-45
2021/11/16 00:43:50;;;;;;;24.90;7.43;;;22.00;41.30;;;;;;4930296;29;20262;-48
2021/11/16 00:46:23;;;;;;;28.25;7.63;;;22.10;41.30;;;;;;4929548;29;20278;-54
2021/11/16 00:48:53;;;;;;;29.23;7.07;;;22.10;41.40;;;;;;4929743;29;20298;-46
2021/11/16 00:51:23;;;;;;;37.50;8.13;;;22.10;41.30;;;;;;4929301;29;20279;-52
2021/11/16 00:53:54;;;;;;;31.48;8.63;;;22.10;41.30;;;;;;4928512;29;20224;-46
2021/11/16 00:56:24;;;;;;;41.10;9.45;;;22.10;41.40;;;;;;4929454;29;20208;-46
2021/11/16 00:58:55;;;;;;;32.22;8.45;;;22.10;41.40;;;;;;4930541;29;20256;-44
2021/11/16 01:01:27;;;;;;;27.35;7.18;;;22.20;41.50;;;;;;4929724;29;20295;-56
2021/11/16 01:03:59;;;;;;;30.98;7.22;;;22.10;41.30;;;;;;4928513;29;20233;-46
2021/11/16 01:06:30;;;;;;;36.85;7.63;;;22.20;41.40;;;;;;4930014;29;20212;-45
2021/11/16 01:09:00;;;;;;;35.28;7.22;;;22.20;41.50;;;;;;4929674;29;20290;-50
2021/11/16 01:11:31;;;;;;;21.95;6.10;;;22.20;41.40;;;;;;4929027;29;20306;-48
2021/11/16 01:14:01;;;;;;;30.42;6.75;;;22.20;41.60;;;;;;4929362;29;20322;-45
2021/11/16 01:16:33;;;;;;;32.67;7.03;;;22.20;41.50;;;;;;4929988;29;20283;-44
2021/11/16 01:19:06;;;;;;;27.25;5.85;;;22.20;41.50;;;;;;4930074;29;20223;-45
2021/11/16 01:21:38;;;;;;;22.05;4.88;;;22.20;41.40;;;;;;4928497;29;20544;-44
2021/11/16 01:24:10;;;;;;;22.50;5.70;;;22.20;41.30;;;;;;4928163;29;20313;-46
2021/11/16 01:26:43;;;;;;;19.80;5.10;;;22.20;41.30;;;;;;4929149;29;20672;-48
2021/11/16 01:29:14;;;;;;;26.30;5.40;;;22.20;41.30;;;;;;4929522;29;20199;-51
2021/11/16 01:31:46;;;;;;;16.33;4.90;;;22.20;41.40;;;;;;4929232;29;20227;-55
2021/11/16 01:34:23;;;;;;;24.50;6.03;;;22.20;41.50;;;;;;4929659;29;20215;-45
2021/11/16 01:36:54;;;;;;;22.95;5.20;;;22.20;41.50;;;;;;4927984;29;20211;-44
2021/11/16 01:39:24;;;;;;;20.95;5.88;;;22.20;41.40;;;;;;4927791;29;20212;-50
2021/11/16 01:41:55;;;;;;;24.20;6.10;;;22.30;41.30;;;;;;4928103;29;20279;-50
2021/11/16 01:44:26;;;;;;;34.83;6.50;;;22.30;41.30;;;;;;4927847;29;20223;-44
2021/11/16 01:46:58;;;;;;;22.27;7.00;;;22.30;41.30;;;;;;4928948;29;20196;-47
2021/11/16 01:49:29;;;;;;;27.67;6.88;;;22.30;41.30;;;;;;4928608;29;20204;-47
2021/11/16 01:51:59;;;;;;;29.67;7.78;;;22.30;41.30;;;;;;4929400;29;20866;-47
2021/11/16 01:54:30;;;;;;;26.02;8.10;;;22.30;41.40;;;;;;4919657;29;20255;-45
2021/11/16 01:57:00;;;;;;;26.05;7.32;;;22.30;41.40;;;;;;4926566;29;20290;-45
2021/11/16 01:59:31;;;;;;;21.63;6.30;;;22.30;41.40;;;;;;4927803;29;20195;-44
2021/11/16 02:02:03;;;;;;;29.95;9.27;;;22.40;41.50;;;;;;4927637;29;20310;-47
2021/11/16 02:04:34;;;;;;;24.92;7.55;;;22.40;41.50;;;;;;4927224;29;20310;-45
2021/11/16 02:07:06;;;;;;;33.95;9.02;;;22.40;41.60;;;;;;4927679;29;20704;-48
2021/11/16 02:09:37;;;;;;;24.80;7.78;;;22.40;41.60;;;;;;4929179;29;20577;-46
2021/11/16 02:12:08;;;;;;;21.58;6.47;;;22.40;41.60;;;;;;4928534;29;20318;-48
2021/11/16 02:14:39;;;;;;;20.42;6.72;;;22.40;41.60;;;;;;4927651;29;20643;-46
2021/11/16 02:17:11;;;;;;;28.45;7.05;;;22.40;41.70;;;;;;4928136;29;20283;-45
2021/11/16 02:19:42;;;;;;;28.30;8.10;;;22.40;41.70;;;;;;4927581;29;20781;-49
2021/11/16 02:22:14;;;;;;;26.13;7.13;;;22.50;41.70;;;;;;4929027;29;20287;-47
2021/11/16 02:24:45;;;;;;;107.82;16.13;;;22.50;41.80;;;;;;4928566;29;20310;-47
2021/11/16 02:27:15;;;;;;;137.98;18.77;;;22.50;41.80;;;;;;4929069;29;20199;-51
2021/11/16 02:29:46;;;;;;;107.68;17.05;;;22.60;42.10;;;;;;4928278;29;20259;-54
2021/11/16 02:32:16;;;;;;;117.18;17.67;;;22.60;42.20;;;;;;4927697;29;20318;-52
2021/11/16 02:34:47;;;;;;;95.60;16.25;;;22.60;42.20;;;;;;4927519;29;20704;-49
2021/11/16 02:37:19;;;;;;;70.78;13.55;;;22.60;42.10;;;;;;4928747;29;20357;-51
2021/11/16 02:39:49;;;;;;;80.57;14.55;;;22.70;42.10;;;;;;4928467;29;20278;-51
2021/11/16 02:42:21;;;;;;;112.82;15.90;;;22.60;42.00;;;;;;4929010;29;20282;-55
2021/11/16 02:44:52;;;;;;;90.30;13.90;;;22.70;41.80;;;;;;4927208;29;20223;-56
2021/11/16 02:47:23;;;;;;;71.72;12.60;;;22.70;41.80;;;;;;4926346;29;20208;-53
2021/11/16 02:49:55;;;;;;;71.93;12.65;;;22.80;41.90;;;;;;4928719;29;20204;-48
2021/11/16 02:52:28;;;;;;;66.78;12.38;;;22.80;41.80;;;;;;4927223;29;20231;-45
2021/11/16 02:54:59;;;;;;;71.47;11.55;;;22.80;41.80;;;;;;4928501;29;20467;-46
2021/11/16 02:57:29;;;;;;;72.78;12.80;;;22.80;41.70;;;;;;4928399;29;20295;-47
2021/11/16 02:59:59;;;;;;;60.75;11.48;;;22.80;41.70;;;;;;4928333;29;20642;-49
2021/11/16 03:02:30;;;;;;;66.03;11.13;;;22.90;41.70;;;;;;4929889;29;20203;-46
2021/11/16 03:05:00;;;;;;;50.88;10.75;;;22.90;41.50;;;;;;4931252;29;20225;-46
2021/11/16 03:07:39;;;;;;;55.65;10.77;;;22.90;41.30;;;;;;4930947;29;20218;-48
2021/11/16 03:10:11;;;;;;;70.82;9.55;;;22.90;41.10;;;;;;4930641;29;20221;-45
2021/11/16 03:12:41;;;;;;;49.25;8.57;;;23.00;41.20;;;;;;4931270;29;20246;-47
2021/11/16 03:15:12;;;;;;;35.30;8.18;;;23.00;41.30;;;;;;4931478;29;20230;-50
2021/11/16 03:17:43;;;;;;;33.08;7.50;;;23.00;41.10;;;;;;4931758;29;20290;-56
2021/11/16 03:20:16;;;;;;;35.25;7.32;;;23.00;41.10;;;;;;4931740;29;20243;-56
2021/11/16 03:22:51;;;;;;;26.92;6.65;;;23.00;40.80;;;;;;4931624;29;21945;-50
2021/11/16 03:25:25;;;;;;;25.05;5.90;;;23.10;40.60;;;;;;4930528;29;20223;-52
2021/11/16 03:28:02;;;;;;;24.40;7.00;;;23.10;40.50;;;;;;4930759;29;20715;-52
2021/11/16 03:30:33;;;;;;;30.85;5.97;;;23.20;40.70;;;;;;4931022;29;20207;-49
2021/11/16 03:33:05;;;;;;;31.15;4.95;;;23.20;40.80;;;;;;4930988;29;20227;-49
2021/11/16 03:35:36;;;;;;;18.30;4.07;;;23.20;40.70;;;;;;4930533;29;20238;-52
2021/11/16 03:38:09;;;;;;;24.27;5.28;;;23.20;40.80;;;;;;4930357;29;20200;-47
2021/11/16 03:40:41;;;;;;;17.60;3.75;;;23.30;40.80;;;;;;4930549;29;22073;-48
2021/11/16 03:43:14;;;;;;;12.00;2.50;;;23.20;40.60;;;;;;4931153;29;20307;-49
2021/11/16 03:45:45;;;;;;;11.25;2.30;;;23.30;40.70;;;;;;4930656;29;20310;-49
2021/11/16 03:48:16;;;;;;;6.25;1.90;;;23.30;40.70;;;;;;4930730;29;20295;-50
2021/11/16 03:50:47;;;;;;;9.48;1.90;;;23.30;40.40;;;;;;4931824;29;20634;-50
2021/11/16 03:53:19;;;;;;;3.72;1.08;;;23.30;40.30;;;;;;4931061;29;20782;-50
2021/11/16 03:55:50;;;;;;;3.10;1.10;;;23.30;39.70;;;;;;4929921;29;20257;-53
2021/11/16 03:58:24;;;;;;;2.40;0.88;;;23.30;39.80;;;;;;4930624;29;20206;-47
2021/11/16 04:00:57;;;;;;;2.45;1.00;;;23.30;39.70;;;;;;4929434;29;20667;-53
2021/11/16 04:03:29;;;;;;;2.90;0.70;;;23.30;39.70;;;;;;4930911;29;20302;-49
2021/11/16 04:06:00;;;;;;;2.38;0.75;;;23.30;39.70;;;;;;4931033;29;20879;-49
2021/11/16 04:08:32;;;;;;;2.05;0.75;;;23.30;39.30;;;;;;4931272;29;20715;-44
2021/11/16 04:11:03;;;;;;;1.45;0.60;;;23.30;38.90;;;;;;4931102;29;20206;-54
2021/11/16 04:13:33;;;;;;;1.63;0.60;;;23.30;38.30;;;;;;4929259;29;20350;-51
2021/11/16 04:16:05;;;;;;;1.10;0.50;;;23.30;38.40;;;;;;4929628;29;20211;-52
2021/11/16 04:18:36;;;;;;;0.82;0.50;;;23.30;38.10;;;;;;4931492;29;20254;-51
2021/11/16 04:21:06;;;;;;;1.15;0.43;;;23.30;38.00;;;;;;4930928;29;20291;-53
2021/11/16 04:23:39;;;;;;;1.85;0.35;;;23.30;38.20;;;;;;4931126;29;20703;-46
2021/11/16 04:26:09;;;;;;;2.65;0.30;;;23.30;38.30;;;;;;4930050;29;20227;-50
2021/11/16 04:28:41;;;;;;;0.35;0.25;;;23.30;37.90;;;;;;4929489;29;20295;-48
2021/11/16 04:31:11;;;;;;;0.50;0.20;;;23.30;37.80;;;;;;4929347;29;20202;-50
2021/11/16 04:33:43;;;;;;;0.50;0.30;;;23.30;37.80;;;;;;4929287;29;20327;-48
2021/11/16 04:36:17;;;;;;;0.32;0.25;;;23.30;37.80;;;;;;4929316;29;20211;-49
2021/11/16 04:38:49;;;;;;;1.30;0.57;;;23.30;37.40;;;;;;4951274;23;20231;-48
2021/11/16 04:41:19;;;;;;;0.93;0.40;;;23.30;36.90;;;;;;4950257;28;20766;-46
2021/11/16 04:43:50;;;;;;;2.38;0.40;;;23.30;36.80;;;;;;4954571;28;20316;-47
2021/11/16 04:46:21;;;;;;;3.78;0.60;;;23.30;36.70;;;;;;4964211;28;20198;-48
2021/11/16 04:49:00;;;;;;;3.22;0.40;;;23.30;36.60;;;;;;4964187;28;20198;-45
2021/11/16 04:51:55;;;;;;;2.95;0.40;;;23.20;36.00;;;;;;4964458;28;20210;-48
2021/11/16 05:02:47;;;;;;;1.95;0.32;;;23.10;35.10;;;;;;4953783;28;20222;-46
2021/11/16 05:05:19;;;;;;;3.22;0.55;;;23.10;35.10;;;;;;4966456;28;20266;-47
2021/11/16 05:07:54;;;;;;;1.00;0.40;;;23.10;35.20;;;;;;4965830;28;20221;-46
2021/11/16 05:10:27;;;;;;;1.58;0.35;;;23.00;35.30;;;;;;4965739;28;20217;-46
2021/11/16 05:12:59;;;;;;;2.22;0.40;;;23.00;35.40;;;;;;4964714;28;20226;-47
2021/11/16 05:15:30;;;;;;;1.85;0.40;;;23.00;35.40;;;;;;4963226;28;20805;-45
2021/11/16 05:18:00;;;;;;;2.72;0.50;;;22.90;35.60;;;;;;4965114;28;20289;-45
2021/11/16 05:20:31;;;;;;;0.45;0.20;;;22.90;35.60;;;;;;4964489;28;20285;-51
2021/11/16 05:23:02;;;;;;;0.60;0.28;;;22.90;35.70;;;;;;4967502;28;20279;-51
2021/11/16 05:25:34;;;;;;;0.75;0.15;;;22.90;35.70;;;;;;4965534;28;20245;-46
2021/11/16 05:28:07;;;;;;;1.92;0.30;;;22.90;35.70;;;;;;4964440;28;20194;-48
2021/11/16 05:30:37;;;;;;;0.65;0.22;;;22.90;35.70;;;;;;4964670;28;20293;-50
2021/11/16 05:33:08;;;;;;;1.88;0.40;;;22.80;35.70;;;;;;4963568;28;20218;-49
2021/11/16 05:35:38;;;;;;;0.30;0.20;;;22.80;35.70;;;;;;4963432;28;20301;-47
2021/11/16 05:38:09;;;;;;;2.83;0.60;;;22.80;35.60;;;;;;4966586;28;20285;-50
2021/11/16 05:40:42;;;;;;;5.78;0.57;;;22.70;35.50;;;;;;4963639;28;20198;-49
2021/11/16 05:43:13;;;;;;;4.65;0.50;;;22.70;35.70;;;;;;4964545;28;20646;-48
2021/11/16 05:45:43;;;;;;;3.25;0.68;;;22.70;35.80;;;;;;4961156;28;20377;-49
2021/11/16 05:48:14;;;;;;;4.18;0.60;;;22.60;35.90;;;;;;4963827;28;20205;-47
2021/11/16 05:50:45;;;;;;;5.70;0.68;;;22.60;35.80;;;;;;4964548;28;20291;-43
2021/11/16 05:53:16;;;;;;;11.60;1.00;;;22.60;35.90;;;;;;4965448;28;20324;-46
2021/11/16 05:55:49;;;;;;;10.60;1.10;;;22.60;36.00;;;;;;4964524;28;20210;-45
2021/11/16 05:58:20;;;;;;;5.82;0.88;;;22.60;36.20;;;;;;4966350;28;20205;-47
2021/11/16 06:00:51;;;;;;;7.20;0.80;;;22.50;36.20;;;;;;4964772;28;20288;-48
2021/11/16 06:03:22;;;;;;;4.68;0.57;;;22.50;36.30;;;;;;4963909;28;20284;-45
2021/11/16 06:05:53;;;;;;;5.32;0.70;;;22.50;36.40;;;;;;4962602;28;20297;-45
2021/11/16 06:08:24;;;;;;;3.63;1.08;;;22.50;36.40;;;;;;4964649;28;20714;-49
2021/11/16 06:10:57;;;;;;;6.63;0.98;;;22.50;36.20;;;;;;4964255;28;20305;-49
2021/11/16 06:13:27;;;;;;;8.27;1.00;;;22.50;36.40;;;;;;4964272;28;20329;-49
2021/11/16 06:15:58;;;;;;;4.72;1.00;;;22.50;36.60;;;;;;4963761;28;20205;-46
2021/11/16 06:18:29;;;;;;;5.35;0.85;;;22.50;36.80;;;;;;4963375;28;20293;-46
2021/11/16 06:20:59;;;;;;;4.50;0.90;;;22.50;37.00;;;;;;4964495;28;20214;-46
2021/11/16 06:23:30;;;;;;;7.75;1.42;;;22.50;37.00;;;;;;4964867;28;20293;-48
2021/11/16 06:26:02;;;;;;;7.43;1.10;;;22.60;37.20;;;;;;4962965;28;20213;-51
2021/11/16 06:28:33;;;;;;;9.00;1.05;;;22.60;37.30;;;;;;4964922;28;20202;-50
2021/11/16 06:31:03;;;;;;;5.68;0.77;;;22.60;37.40;;;;;;4965238;28;20293;-47
2021/11/16 06:33:34;;;;;;;5.82;1.10;;;22.60;37.50;;;;;;4963047;28;20707;-46
2021/11/16 06:36:04;;;;;;;6.38;1.10;;;22.60;37.60;;;;;;4965925;28;20198;-49
2021/11/16 06:38:35;;;;;;;7.35;1.30;;;22.60;37.80;;;;;;4967224;28;20289;-47
2021/11/16 06:41:07;;;;;;;5.93;0.90;;;22.60;37.70;;;;;;4964960;28;20290;-45
2021/11/16 06:43:38;;;;;;;6.03;0.80;;;22.60;37.70;;;;;;4967451;28;20233;-48
2021/11/16 06:46:09;;;;;;;5.28;1.15;;;22.70;37.90;;;;;;4956942;28;20654;-49
2021/11/16 06:48:39;;;;;;;10.57;1.08;;;22.70;38.00;;;;;;4965796;28;20895;-46
2021/11/16 06:51:10;;;;;;;4.40;1.00;;;22.70;38.00;;;;;;4966278;28;20297;-45
2021/11/16 06:53:40;;;;;;;7.05;1.00;;;22.70;38.10;;;;;;4965933;28;20265;-46
2021/11/16 06:56:13;;;;;;;6.25;1.02;;;22.70;38.20;;;;;;4966168;28;20659;-48
2021/11/16 06:58:43;;;;;;;3.08;0.77;;;22.70;38.30;;;;;;4965658;28;20202;-47
2021/11/16 07:01:14;;;;;;;6.43;1.23;;;22.80;38.40;;;;;;4969373;28;20643;-47
2021/11/16 07:03:51;;;;;;;4.50;0.68;;;22.80;38.40;;;;;;4968426;28;20812;-47
2021/11/16 07:06:27;;;;;;;3.63;1.02;;;22.70;38.50;;;;;;4965792;28;20198;-48
2021/11/16 07:08:58;;;;;;;10.85;1.23;;;22.80;38.60;;;;;;4965292;28;20298;-47
2021/11/16 07:11:30;;;;;;;4.93;0.80;;;22.80;38.60;;;;;;4967198;28;20297;-50
2021/11/16 07:14:03;;;;;;;7.07;1.20;;;22.70;38.70;;;;;;4963439;28;21858;-50
2021/11/16 07:16:37;;;;;;;5.45;0.93;;;22.70;38.90;;;;;;4946010;28;20203;-46
2021/11/16 07:19:09;;;;;;;5.00;1.00;;;22.60;39.00;;;;;;4968270;28;20290;-49
2021/11/16 07:21:48;;;;;;;6.53;1.00;;;22.70;38.90;;;;;;4968742;28;20201;-48
2021/11/16 07:24:20;;;;;;;8.55;1.35;;;22.70;38.90;;;;;;4968278;28;20214;-47
2021/11/16 07:27:01;;;;;;;5.95;0.95;;;22.80;38.90;;;;;;4967245;28;20229;-45
2021/11/16 07:29:38;;;;;;;9.98;1.08;;;22.70;38.70;;;;;;4965529;28;20300;-45
2021/11/16 07:32:10;;;;;;;7.88;1.30;;;22.70;38.80;;;;;;4966411;28;20658;-46
2021/11/16 07:34:41;;;;;;;7.10;0.88;;;22.70;38.80;;;;;;4965362;28;20338;-46
2021/11/16 07:37:14;;;;;;;4.95;0.93;;;22.70;38.80;;;;;;4966361;28;20250;-49
2021/11/16 07:39:50;;;;;;;4.90;1.02;;;22.70;38.90;;;;;;4967549;28;20203;-47
2021/11/16 07:42:24;;;;;;;10.60;1.10;;;22.60;38.80;;;;;;4965579;28;20187;-49
2021/11/16 07:45:06;;;;;;;2.40;0.70;;;22.60;38.80;;;;;;4964883;28;20218;-49
2021/11/16 07:47:45;;;;;;;4.47;0.98;;;22.60;39.00;;;;;;4950557;28;20289;-45
2021/11/16 07:50:19;;;;;;;5.70;0.80;;;22.60;39.10;;;;;;4966011;28;20198;-48
2021/11/16 07:52:50;;;;;;;2.70;0.70;;;22.50;39.20;;;;;;4964323;28;20222;-46
2021/11/16 07:55:23;;;;;;;5.35;0.65;;;22.50;39.30;;;;;;4965524;28;20222;-47
2021/11/16 07:57:56;;;;;;;2.60;0.70;;;22.50;39.30;;;;;;4965829;28;20233;-48
2021/11/16 08:00:28;;;;;;;3.42;1.20;;;22.50;39.30;;;;;;4967800;28;20227;-49
2021/11/16 08:03:03;;;;;;;4.43;0.82;;;22.40;39.40;;;;;;4968277;28;20289;-47
2021/11/16 08:05:41;;;;;;;7.22;0.57;;;22.40;39.40;;;;;;4967656;28;20246;-45
2021/11/16 08:08:34;;;;;;;6.03;0.90;;;22.40;39.40;;;;;;4965573;28;20209;-49
2021/11/16 08:11:11;;;;;;;3.13;0.50;;;22.30;39.50;;;;;;4966745;28;20292;-49
2021/11/16 08:13:53;;;;;;;3.30;0.50;;;22.30;39.60;;;;;;4966127;28;20313;-44
2021/11/16 08:16:25;;;;;;;2.80;0.70;;;22.30;39.70;;;;;;4964590;28;20281;-47
2021/11/16 08:19:01;;;;;;;2.83;0.70;;;22.30;39.70;;;;;;4947002;28;20237;-51
2021/11/16 08:21:32;;;;;;;4.07;1.10;;;22.20;39.80;;;;;;4964380;28;20202;-47
2021/11/16 08:24:04;;;;;;;4.35;1.30;;;22.20;39.80;;;;;;4966817;28;20409;-46
2021/11/16 08:26:36;;;;;;;6.60;1.88;;;22.20;39.90;;;;;;4968083;28;20233;-50
2021/11/16 08:29:11;;;;;;;6.38;1.60;;;22.20;39.90;;;;;;4964390;28;20321;-48
2021/11/16 08:31:50;;;;;;;4.72;1.65;;;22.10;39.80;;;;;;4965317;28;20630;-49
2021/11/16 08:34:21;;;;;;;8.07;1.77;;;22.10;39.80;;;;;;4965035;28;20355;-42
2021/11/16 08:36:53;;;;;;;6.90;1.77;;;22.10;39.90;;;;;;4965503;28;20297;-44
2021/11/16 08:39:33;;;;;;;5.88;1.60;;;22.00;39.80;;;;;;4966319;28;20615;-46
2021/11/16 08:42:04;;;;;;;3.83;1.80;;;22.00;40.50;;;;;;4962885;28;20205;-45
2021/11/16 08:44:46;;;;;;;6.43;1.80;;;22.00;40.00;;;;;;4967296;28;20618;-47
2021/11/16 08:47:19;;;;;;;5.43;1.83;;;21.90;40.00;;;;;;4966413;28;20256;-47
2021/11/16 08:49:49;;;;;;;4.93;1.80;;;21.90;40.00;;;;;;4962746;28;20658;-44
2021/11/16 08:52:20;;;;;;;7.18;2.08;;;21.90;40.00;;;;;;4965126;28;20217;-48
2021/11/16 08:55:00;;;;;;;5.25;1.70;;;21.80;39.90;;;;;;4965490;28;20324;-48
2021/11/16 08:57:31;;;;;;;5.82;2.08;;;21.80;40.00;;;;;;4962840;28;20290;-43
2021/11/16 09:00:16;;;;;;;3.78;1.50;;;21.80;40.00;;;;;;4965362;28;20656;-43
2021/11/16 09:02:46;;;;;;;5.18;1.73;;;21.70;40.00;;;;;;4966833;28;20280;-47
2021/11/16 09:05:19;;;;;;;5.15;1.70;;;21.70;40.00;;;;;;4965857;28;20225;-47
2021/11/16 09:07:56;;;;;;;7.68;1.60;;;21.70;40.10;;;;;;4965022;28;20563;-46
2021/11/16 09:10:35;;;;;;;5.57;1.60;;;21.70;40.10;;;;;;4963332;28;20205;-51
2021/11/16 09:13:06;;;;;;;4.72;1.70;;;21.60;40.10;;;;;;4964132;28;20281;-48
2021/11/16 09:15:41;;;;;;;6.13;1.83;;;21.60;40.10;;;;;;4965190;28;20229;-51
2021/11/16 09:18:17;;;;;;;4.95;1.60;;;21.60;40.20;;;;;;4963356;28;21126;-47
2021/11/16 09:20:56;;;;;;;5.88;1.75;;;21.60;40.40;;;;;;4965166;28;20238;-47
2021/11/16 09:23:29;;;;;;;4.65;1.42;;;21.50;40.40;;;;;;4967327;28;20627;-47
2021/11/16 09:26:13;;;;;;;5.70;2.33;;;21.50;40.40;;;;;;4966912;28;20202;-46
2021/11/16 09:28:53;;;;;;;4.45;1.50;;;21.40;40.50;;;;;;4966043;28;20217;-47
2021/11/16 09:31:30;;;;;;;3.72;1.50;;;21.40;40.50;;;;;;4963814;28;20287;-46
2021/11/16 09:34:03;;;;;;;4.32;1.50;;;21.40;40.60;;;;;;4962281;28;20720;-43
2021/11/16 09:36:34;;;;;;;4.70;1.55;;;21.40;40.60;;;;;;4963691;28;20198;-43
2021/11/16 09:39:10;;;;;;;4.88;1.88;;;21.30;40.60;;;;;;4961653;28;20209;-49
2021/11/16 09:41:44;;;;;;;4.78;1.73;;;21.30;40.70;;;;;;4963821;28;20222;-47
2021/11/16 09:44:23;;;;;;;4.05;1.45;;;21.30;40.70;;;;;;4967207;28;20309;-49
2021/11/16 09:46:57;;;;;;;3.85;1.45;;;21.30;40.80;;;;;;4963780;28;20206;-44
2021/11/16 09:49:35;;;;;;;4.07;1.38;;;21.20;40.80;;;;;;4964430;28;20197;-46
2021/11/16 09:52:08;;;;;;;4.72;1.30;;;21.20;40.80;;;;;;4962368;28;20201;-44
2021/11/16 09:54:53;;;;;;;3.78;1.50;;;21.20;40.80;;;;;;4962445;28;20233;-48
2021/11/16 09:57:26;;;;;;;2.95;1.40;;;21.20;40.80;;;;;;4962457;28;20565;-46
2021/11/16 10:00:07;;;;;;;3.40;1.65;;;21.10;40.90;;;;;;4963012;28;20212;-46
2021/11/16 10:02:41;;;;;;;4.85;1.55;;;21.10;40.90;;;;;;4963392;28;20199;-44
2021/11/16 10:05:18;;;;;;;2.58;1.17;;;21.10;41.00;;;;;;4964504;28;20316;-44
2021/11/16 10:07:48;;;;;;;4.35;1.65;;;21.10;41.00;;;;;;4964482;28;20204;-45
2021/11/16 10:10:20;;;;;;;2.88;1.30;;;21.10;41.10;;;;;;4964649;28;20218;-44
2021/11/16 10:12:53;;;;;;;3.38;1.33;;;21.00;41.20;;;;;;4963704;28;20281;-45
2021/11/16 10:15:25;;;;;;;2.67;1.27;;;21.00;41.20;;;;;;4963881;28;20241;-49
2021/11/16 10:17:58;;;;;;;2.97;1.38;;;21.00;41.30;;;;;;4960849;28;20203;-46
2021/11/16 10:20:30;;;;;;;2.50;1.48;;;20.90;41.20;;;;;;4963656;28;20245;-44
2021/11/16 10:23:03;;;;;;;3.13;1.33;;;20.90;41.30;;;;;;4965924;28;22005;-46
2021/11/16 10:25:34;;;;;;;1.88;1.27;;;20.90;41.30;;;;;;4966491;28;20302;-45
2021/11/16 10:28:10;;;;;;;3.83;1.55;;;20.90;41.40;;;;;;4964685;28;20198;-44
2021/11/16 10:30:41;;;;;;;2.90;1.05;;;20.80;41.40;;;;;;4964463;28;20220;-45
2021/11/16 10:33:15;;;;;;;2.88;1.30;;;20.80;41.50;;;;;;4963393;28;20198;-46
2021/11/16 10:35:49;;;;;;;2.50;1.10;;;20.80;41.50;;;;;;4962379;28;21052;-46
2021/11/16 10:38:21;;;;;;;3.05;1.23;;;20.80;41.50;;;;;;4962381;28;20194;-50
2021/11/16 10:40:52;;;;;;;4.32;1.52;;;20.70;41.50;;;;;;4966956;28;20780;-44
2021/11/16 10:43:23;;;;;;;1.83;1.00;;;20.70;41.50;;;;;;4964575;28;20206;-43
2021/11/16 10:45:55;;;;;;;2.92;1.33;;;20.70;41.60;;;;;;4964304;28;20205;-45
2021/11/16 10:48:27;;;;;;;2.35;1.30;;;20.70;41.70;;;;;;4960820;28;20293;-42
2021/11/16 10:50:57;;;;;;;2.47;1.30;;;20.70;41.70;;;;;;4964290;28;21488;-42
2021/11/16 10:53:29;;;;;;;3.13;1.38;;;20.60;41.70;;;;;;4956420;28;20249;-45
2021/11/16 10:56:01;;;;;;;3.10;1.35;;;20.60;41.80;;;;;;4949609;28;20233;-46
2021/11/16 10:58:38;;;;;;;2.03;0.98;;;20.60;41.80;;;;;;4950219;28;20210;-45
2021/11/16 11:01:10;;;;;;;4.03;1.10;;;20.60;41.80;;;;;;4948818;28;20245;-45
2021/11/16 11:03:44;;;;;;;3.05;1.33;;;20.60;41.80;;;;;;4948591;28;20226;-48
2021/11/16 11:06:18;;;;;;;2.83;1.13;;;20.60;41.90;;;;;;4946762;28;20206;-47
2021/11/16 11:08:50;;;;;;;2.42;1.02;;;20.50;41.90;;;;;;4945991;28;20195;-44
2021/11/16 11:11:24;;;;;;;2.78;1.10;;;20.50;41.90;;;;;;4947662;28;20202;-47
2021/11/16 11:14:03;;;;;;;2.63;1.13;;;20.50;42.00;;;;;;4947149;28;20261;-47
2021/11/16 11:16:34;;;;;;;2.63;1.08;;;20.50;42.00;;;;;;4947712;28;20615;-44
2021/11/16 11:19:08;;;;;;;1.83;0.80;;;20.50;42.10;;;;;;4948893;28;20211;-47
2021/11/16 11:21:43;;;;;;;2.70;1.10;;;20.40;42.00;;;;;;4933686;28;20863;-44
2021/11/16 11:24:22;;;;;;;1.58;0.80;;;20.40;42.10;;;;;;4950498;28;20229;-50
2021/11/16 11:26:59;;;;;;;2.35;0.80;;;20.40;42.10;;;;;;4951117;28;20683;-47
2021/11/16 11:29:39;;;;;;;1.50;0.90;;;20.40;42.10;;;;;;4951082;28;20298;-44
2021/11/16 11:32:19;;;;;;;1.20;0.88;;;20.30;42.20;;;;;;4950712;28;20651;-51
2021/11/16 11:34:58;;;;;;;2.80;1.38;;;20.30;42.20;;;;;;4950198;28;20758;-46
2021/11/16 11:37:31;;;;;;;1.83;1.00;;;20.30;42.80;;;;;;4950520;28;20203;-44
2021/11/16 11:40:03;;;;;;;1.88;0.82;;;20.30;42.30;;;;;;4950648;28;20199;-46
2021/11/16 11:42:35;;;;;;;2.95;1.15;;;20.30;42.30;;;;;;4952038;28;20282;-46
2021/11/16 11:45:10;;;;;;;1.42;0.70;;;20.20;42.30;;;;;;4938498;28;20258;-48
2021/11/16 11:47:44;;;;;;;1.25;0.77;;;20.20;42.30;;;;;;4939174;28;20214;-48
2021/11/16 11:50:32;;;;;;;2.28;1.00;;;20.20;42.40;;;;;;4944528;28;20202;-46
2021/11/16 11:53:06;;;;;;;1.77;0.90;;;20.20;42.40;;;;;;4946990;28;20307;-47
2021/11/16 11:55:39;;;;;;;1.42;0.98;;;20.20;42.40;;;;;;4949965;28;20238;-48
2021/11/16 11:58:10;;;;;;;2.17;0.90;;;20.10;42.40;;;;;;4951870;28;20285;-47
2021/11/16 12:00:42;;;;;;;1.67;0.70;;;20.10;42.40;;;;;;4950821;28;20568;-45
2021/11/16 12:03:13;;;;;;;1.58;0.85;;;20.10;42.50;;;;;;4952631;28;20310;-49
2021/11/16 12:05:46;;;;;;;1.25;0.73;;;20.10;42.50;;;;;;4939583;28;20295;-46
2021/11/16 12:08:18;;;;;;;1.27;0.70;;;20.10;42.50;;;;;;4945826;28;20202;-47
2021/11/16 12:10:51;;;;;;;1.27;0.80;;;20.00;42.50;;;;;;4950447;28;20231;-46
2021/11/16 12:13:24;;;;;;;2.58;0.85;;;20.10;42.60;;;;;;4949973;28;20678;-50
2021/11/16 12:16:03;;;;;;;1.33;0.80;;;20.00;42.60;;;;;;4951822;28;20309;-44
2021/11/16 12:18:41;;;;;;;1.65;0.80;;;20.00;42.60;;;;;;4936220;29;20795;-48
2021/11/16 12:21:29;;;;;;;1.55;0.80;;;20.00;42.60;;;;;;4934595;28;20286;-49
2021/11/16 12:24:01;;;;;;;1.67;0.88;;;20.00;42.60;;;;;;4950893;28;20321;-47
2021/11/16 12:26:35;;;;;;;1.85;0.77;;;20.00;42.70;;;;;;4949112;28;20294;-46
2021/11/16 12:29:16;;;;;;;1.70;0.80;;;20.00;42.70;;;;;;4950440;28;20653;-47
2021/11/16 12:31:48;;;;;;;1.98;0.80;;;19.90;42.60;;;;;;4943846;28;20199;-44
2021/11/16 12:34:37;;;;;;;1.45;0.82;;;19.90;42.70;;;;;;4939979;28;20230;-47
2021/11/16 12:37:11;;;;;;;1.00;0.65;;;19.90;42.70;;;;;;4950478;28;20194;-46
2021/11/16 12:39:57;;;;;;;1.60;0.73;;;19.90;42.70;;;;;;4949336;28;20282;-46
2021/11/16 12:42:27;;;;;;;1.02;0.70;;;19.80;42.70;;;;;;4936614;29;20273;-46
2021/11/16 12:45:00;;;;;;;0.88;0.52;;;19.90;42.70;;;;;;4951356;28;20225;-49
2021/11/16 12:47:32;;;;;;;1.73;0.70;;;19.80;42.70;;;;;;4936294;28;20196;-45
2021/11/16 12:50:12;;;;;;;1.02;0.68;;;19.80;42.70;;;;;;4937457;28;20314;-46
2021/11/16 12:52:49;;;;;;;0.90;0.60;;;19.80;42.70;;;;;;4938729;28;20282;-44
2021/11/16 12:55:24;;;;;;;1.48;0.80;;;19.80;42.80;;;;;;4947356;28;20766;-49
2021/11/16 12:57:56;;;;;;;1.80;0.70;;;19.80;42.80;;;;;;4948031;28;20203;-50
2021/11/16 13:00:40;;;;;;;2.05;0.70;;;19.70;42.80;;;;;;4936525;28;20687;-46
2021/11/16 13:03:11;;;;;;;1.00;0.60;;;19.80;42.90;;;;;;4937174;29;20202;-48
2021/11/16 13:05:43;;;;;;;1.52;0.80;;;19.70;42.90;;;;;;4951078;28;20222;-46
2021/11/16 13:08:28;;;;;;;0.98;0.50;;;19.70;42.90;;;;;;4950187;28;20290;-44
2021/11/16 13:10:59;;;;;;;1.08;0.45;;;19.70;42.90;;;;;;4938273;28;20210;-47
2021/11/16 13:13:31;;;;;;;2.15;0.70;;;19.70;42.90;;;;;;4945263;28;20198;-46
2021/11/16 13:16:04;;;;;;;1.10;0.70;;;19.70;42.90;;;;;;4948385;28;20321;-44
2021/11/16 13:18:39;;;;;;;1.00;0.50;;;19.70;43.00;;;;;;4948837;28;20278;-45
2021/11/16 13:21:19;;;;;;;0.70;0.57;;;19.70;43.00;;;;;;4935233;29;20195;-48